createdAt,value
2022-08-18T00:00:01.166Z,21.15
2022-08-18T00:02:30.738Z,21.11
2022-08-18T00:04:58.535Z,21.09
2022-08-18T00:07:31.765Z,21.03
2022-08-18T00:10:00.824Z,21.01
2022-08-18T00:12:41.128Z,20.95
2022-08-18T00:15:14.746Z,20.90
2022-08-18T00:17:41.921Z,20.85
2022-08-18T00:20:16.634Z,20.83
2022-08-18T00:22:43.668Z,20.83
2022-08-18T00:25:13.981Z,20.80
2022-08-18T00:27:41.448Z,20.85
2022-08-18T00:30:15.908Z,20.85
2022-08-18T00:32:47.930Z,20.85
2022-08-18T00:35:31.470Z,20.83
2022-08-18T00:38:06.214Z,20.79
2022-08-18T00:40:41.977Z,20.83
2022-08-18T00:43:19.238Z,20.77
2022-08-18T00:45:46.656Z,20.74
2022-08-18T00:48:14.855Z,20.71
2022-08-18T00:50:54.567Z,20.65
2022-08-18T00:53:31.865Z,20.66
2022-08-18T00:56:17.174Z,20.61
2022-08-18T00:59:00.065Z,20.60
2022-08-18T01:01:31.164Z,20.60
2022-08-18T01:04:12.973Z,20.57
2022-08-18T01:06:48.546Z,20.53
2022-08-18T01:09:17.809Z,20.48
2022-08-18T01:11:45.659Z,20.39
2022-08-18T01:14:16.088Z,20.33
2022-08-18T01:17:06.025Z,20.28
2022-08-18T01:19:52.118Z,20.24
2022-08-18T01:22:30.446Z,20.20
2022-08-18T01:25:23.577Z,20.14
2022-08-18T01:27:57.133Z,20.10
2022-08-18T01:30:28.293Z,20.07
2022-08-18T01:32:55.240Z,20.03
2022-08-18T01:35:25.617Z,20.03
2022-08-18T01:37:54.045Z,20.01
2022-08-18T01:41:22.004Z,19.97
2022-08-18T01:43:11.859Z,19.95
2022-08-18T01:45:39.935Z,19.90
2022-08-18T01:48:07.380Z,19.89
2022-08-18T01:50:36.474Z,19.87
2022-08-18T01:53:05.827Z,19.81
2022-08-18T01:55:35.960Z,19.86
2022-08-18T01:58:03.583Z,19.86
2022-08-18T02:00:32.366Z,19.88
2022-08-18T02:03:02.775Z,19.89
2022-08-18T02:05:41.119Z,19.88
2022-08-18T02:08:10.690Z,19.84
2022-08-18T02:10:39.042Z,19.79
2022-08-18T02:13:06.421Z,19.77
2022-08-18T02:15:33.379Z,19.83
2022-08-18T02:18:00.966Z,19.82
2022-08-18T02:20:27.962Z,19.79
2022-08-18T02:22:55.077Z,19.69
2022-08-18T02:25:23.123Z,19.60
2022-08-18T02:27:51.257Z,19.57
2022-08-18T02:30:19.638Z,19.54
2022-08-18T02:32:46.550Z,19.55
2022-08-18T02:35:13.525Z,19.57
2022-08-18T02:37:42.642Z,19.60
2022-08-18T02:40:15.139Z,19.66
2022-08-18T02:42:44.776Z,19.63
2022-08-18T02:45:13.263Z,19.66
2022-08-18T02:47:41.127Z,19.64
2022-08-18T02:50:11.035Z,19.67
2022-08-18T02:52:40.514Z,19.64
2022-08-18T02:55:08.183Z,19.63
2022-08-18T02:57:35.278Z,19.61
2022-08-18T03:00:02.315Z,19.61
2022-08-18T03:02:29.255Z,19.65
2022-08-18T03:04:56.237Z,19.63
2022-08-18T03:07:23.201Z,19.65
2022-08-18T03:09:50.162Z,19.62
2022-08-18T03:12:17.078Z,19.61
2022-08-18T03:14:44.010Z,19.55
2022-08-18T03:17:11.081Z,19.47
2022-08-18T03:19:38.533Z,19.42
2022-08-18T03:22:27.172Z,19.41
2022-08-18T03:24:55.780Z,19.33
2022-08-18T03:27:23.146Z,19.27
2022-08-18T03:29:51.232Z,19.22
2022-08-18T03:32:18.774Z,19.16
2022-08-18T03:34:45.723Z,19.16
2022-08-18T03:37:14.063Z,19.10
2022-08-18T03:39:41.065Z,19.09
2022-08-18T03:42:08.625Z,19.12
2022-08-18T03:44:37.324Z,19.13
2022-08-18T03:47:09.208Z,19.13
2022-08-18T03:49:37.722Z,19.12
2022-08-18T03:52:08.163Z,19.13
2022-08-18T03:54:35.365Z,19.11
2022-08-18T03:57:02.368Z,19.10
2022-08-18T03:59:31.943Z,19.10
2022-08-18T04:02:02.123Z,19.06
2022-08-18T04:04:29.650Z,19.09
2022-08-18T04:07:10.021Z,19.03
2022-08-18T04:09:38.643Z,18.96
2022-08-18T04:12:16.411Z,18.91
2022-08-18T04:14:48.410Z,18.85
2022-08-18T04:17:24.338Z,18.86
2022-08-18T04:19:53.647Z,18.86
2022-08-18T04:22:21.224Z,18.85
2022-08-18T04:24:50.047Z,18.84
2022-08-18T04:27:19.526Z,18.92
2022-08-18T04:29:47.151Z,18.96
2022-08-18T04:32:14.566Z,18.98
2022-08-18T04:34:41.606Z,19.05
2022-08-18T04:37:09.726Z,19.05
2022-08-18T04:39:37.471Z,18.98
2022-08-18T04:42:05.792Z,18.97
2022-08-18T04:44:32.889Z,18.97
2022-08-18T04:47:01.647Z,19.02
2022-08-18T04:49:28.627Z,19.14
2022-08-18T04:52:39.394Z,19.30
2022-08-18T04:55:03.054Z,19.37
2022-08-18T04:57:34.923Z,19.37
2022-08-18T05:00:04.657Z,19.41
2022-08-18T05:02:33.018Z,19.40
2022-08-18T05:05:03.282Z,19.38
2022-08-18T05:07:30.379Z,19.47
2022-08-18T05:09:57.364Z,19.74
2022-08-18T05:12:26.311Z,20.06
2022-08-18T05:14:57.189Z,20.26
2022-08-18T05:17:29.050Z,20.33
2022-08-18T05:20:02.091Z,20.31
2022-08-18T05:22:30.566Z,20.19
2022-08-18T05:24:59.975Z,20.13
2022-08-18T05:27:35.601Z,20.04
2022-08-18T05:30:04.676Z,20.03
2022-08-18T05:32:49.221Z,20.11
2022-08-18T05:35:28.451Z,20.27
2022-08-18T05:38:26.166Z,20.43
2022-08-18T05:41:19.662Z,20.31
2022-08-18T05:43:51.502Z,20.14
2022-08-18T05:46:26.636Z,20.05
2022-08-18T05:48:53.613Z,20.12
2022-08-18T05:51:31.477Z,20.10
2022-08-18T05:54:17.978Z,20.03
2022-08-18T05:56:46.466Z,20.03
2022-08-18T05:59:28.834Z,20.09
2022-08-18T06:02:21.293Z,20.27
2022-08-18T06:04:55.997Z,20.51
2022-08-18T06:07:35.382Z,20.82
2022-08-18T06:10:05.188Z,21.03
2022-08-18T06:12:46.665Z,21.16
2022-08-18T06:15:24.263Z,21.32
2022-08-18T06:18:25.351Z,21.34
2022-08-18T06:21:39.010Z,21.39
2022-08-18T06:24:35.207Z,21.38
2022-08-18T06:27:09.936Z,21.38
2022-08-18T06:30:08.447Z,21.28
2022-08-18T06:32:53.558Z,21.02
2022-08-18T06:35:55.473Z,20.88
2022-08-18T06:38:59.216Z,20.84
2022-08-18T06:41:51.367Z,20.95
2022-08-18T06:44:34.252Z,21.17
2022-08-18T06:47:45.395Z,21.29
2022-08-18T06:50:36.594Z,21.35
2022-08-18T06:53:08.377Z,21.59
2022-08-18T06:55:55.430Z,21.82
2022-08-18T06:58:30.216Z,21.96
2022-08-18T07:01:02.619Z,21.90
2022-08-18T07:03:56.191Z,21.84
2022-08-18T07:06:23.079Z,21.83
2022-08-18T07:08:53.754Z,21.88
2022-08-18T07:11:33.296Z,22.06
2022-08-18T07:14:16.822Z,22.09
2022-08-18T07:16:58.345Z,21.97
2022-08-18T07:19:30.319Z,21.97
2022-08-18T07:22:16.867Z,21.95
2022-08-18T07:24:47.682Z,21.89
2022-08-18T07:27:20.243Z,21.95
2022-08-18T07:30:15.775Z,22.01
2022-08-18T07:32:53.459Z,21.94
2022-08-18T07:35:51.150Z,21.84
2022-08-18T07:38:42.733Z,21.72
2022-08-18T07:41:36.937Z,21.61
2022-08-18T07:44:25.858Z,21.57
2022-08-18T07:47:23.182Z,21.53
2022-08-18T07:50:15.693Z,21.60
2022-08-18T07:52:47.394Z,21.88
2022-08-18T07:55:29.838Z,22.08
2022-08-18T07:58:22.268Z,22.24
2022-08-18T08:01:01.579Z,22.48
2022-08-18T08:03:45.645Z,22.70
2022-08-18T08:06:22.882Z,22.78
2022-08-18T08:09:23.627Z,22.75
2022-08-18T08:12:01.626Z,22.58
2022-08-18T08:14:53.487Z,22.46
2022-08-18T08:17:33.525Z,22.35
2022-08-18T08:20:13.649Z,22.22
2022-08-18T08:23:45.043Z,22.20
2022-08-18T08:26:33.490Z,22.24
2022-08-18T08:29:27.676Z,22.36
2022-08-18T08:32:22.778Z,22.26
2022-08-18T08:34:59.131Z,22.23
2022-08-18T08:37:58.300Z,22.30
2022-08-18T08:41:04.017Z,22.51
2022-08-18T08:43:41.030Z,22.50
2022-08-18T08:46:23.415Z,22.41
2022-08-18T08:48:59.794Z,22.31
2022-08-18T08:51:36.165Z,22.27
2022-08-18T08:54:23.227Z,22.19
2022-08-18T08:56:53.221Z,22.13
2022-08-18T08:59:22.478Z,22.12
2022-08-18T09:02:27.020Z,22.13
2022-08-18T09:06:10.452Z,22.21
2022-08-18T09:09:10.222Z,22.30
2022-08-18T09:11:55.931Z,22.52
2022-08-18T09:14:52.976Z,22.68
2022-08-18T09:18:07.065Z,22.64
2022-08-18T09:21:04.344Z,22.70
2022-08-18T09:23:45.722Z,22.85
2022-08-18T09:26:39.042Z,23.05
2022-08-18T09:29:49.904Z,23.28
2022-08-18T09:32:23.967Z,23.54
2022-08-18T09:35:20.066Z,23.64
2022-08-18T09:38:15.635Z,23.46
2022-08-18T09:41:24.321Z,23.43
2022-08-18T09:44:17.815Z,23.52
2022-08-18T09:46:48.213Z,23.54
2022-08-18T09:49:24.892Z,23.51
2022-08-18T09:51:58.319Z,23.44
2022-08-18T09:54:32.618Z,23.44
2022-08-18T09:57:24.294Z,23.41
2022-08-18T09:59:59.648Z,23.37
2022-08-18T10:02:29.362Z,23.31
2022-08-18T10:05:29.662Z,23.25
2022-08-18T10:08:01.537Z,23.16
2022-08-18T10:11:20.489Z,23.05
2022-08-18T10:14:12.182Z,22.99
2022-08-18T10:22:58.073Z,22.96
2022-08-18T10:25:46.399Z,23.04
2022-08-18T10:28:57.252Z,23.15
2022-08-18T10:31:27.298Z,23.16
2022-08-18T10:34:16.603Z,23.22
2022-08-18T10:36:59.116Z,23.40
2022-08-18T10:39:42.229Z,23.60
2022-08-18T10:42:53.487Z,23.66
2022-08-18T10:45:24.633Z,23.64
2022-08-18T10:48:29.888Z,23.53
2022-08-18T10:51:21.665Z,23.49
2022-08-18T10:54:24.653Z,23.56
2022-08-18T10:57:08.594Z,23.59
2022-08-18T11:00:12.100Z,23.66
2022-08-18T11:03:50.019Z,23.76
2022-08-18T11:09:02.387Z,23.86
2022-08-18T11:15:22.679Z,24.63
2022-08-18T11:18:30.206Z,25.27
2022-08-18T11:21:41.967Z,25.87
2022-08-18T11:24:21.770Z,26.32
2022-08-18T11:27:04.576Z,26.75
2022-08-18T11:29:44.260Z,27.01
2022-08-18T11:32:30.868Z,27.32
2022-08-18T11:34:59.530Z,27.59
2022-08-18T11:37:48.884Z,27.82
2022-08-18T11:46:28.218Z,28.14
2022-08-18T11:49:01.234Z,28.06
2022-08-18T11:51:32.121Z,28.03
2022-08-18T11:57:58.705Z,28.58
2022-08-18T12:00:43.019Z,28.78
2022-08-18T12:03:37.431Z,28.67
2022-08-18T12:06:28.211Z,28.69
2022-08-18T12:09:04.016Z,28.93
2022-08-18T12:14:35.184Z,29.37
2022-08-18T12:17:03.164Z,29.67
2022-08-18T12:19:34.554Z,29.96
2022-08-18T12:22:15.517Z,30.26
2022-08-18T12:24:46.586Z,30.38
2022-08-18T12:27:21.267Z,30.05
2022-08-18T12:30:07.338Z,29.76
2022-08-18T12:32:50.853Z,29.76
2022-08-18T12:35:23.645Z,29.80
2022-08-18T12:38:05.061Z,29.72
2022-08-18T12:40:40.163Z,29.92
2022-08-18T12:43:07.231Z,29.90
2022-08-18T12:45:34.793Z,29.73
2022-08-18T12:48:06.809Z,29.62
2022-08-18T12:50:49.753Z,29.52
2022-08-18T12:56:30.248Z,29.01
2022-08-18T12:59:04.905Z,29.26
2022-08-18T13:01:33.967Z,29.51
2022-08-18T13:04:11.237Z,29.82
2022-08-18T13:06:59.367Z,30.25
2022-08-18T13:09:42.793Z,30.60
2022-08-18T13:12:19.528Z,30.64
2022-08-18T13:14:47.552Z,30.45
2022-08-18T13:17:30.312Z,30.06
2022-08-18T13:20:14.383Z,29.72
2022-08-18T13:22:41.800Z,29.50
2022-08-18T13:25:12.838Z,29.50
2022-08-18T13:30:31.497Z,29.67
2022-08-18T13:33:05.218Z,29.77
2022-08-18T13:35:54.185Z,29.77
2022-08-18T13:38:27.313Z,29.59
2022-08-18T13:40:59.566Z,29.52
2022-08-18T13:43:37.215Z,29.40
2022-08-18T13:46:09.239Z,29.24
2022-08-18T13:48:37.845Z,29.00
2022-08-18T13:51:08.340Z,28.85
2022-08-18T13:53:50.375Z,28.64
2022-08-18T13:56:19.667Z,28.39
2022-08-18T13:58:53.421Z,28.22
2022-08-18T14:01:45.014Z,28.28
2022-08-18T14:04:12.360Z,28.29
2022-08-18T14:06:40.114Z,28.17
2022-08-18T14:09:19.534Z,28.09
2022-08-18T14:11:51.172Z,28.07
2022-08-18T14:14:18.574Z,28.18
2022-08-18T14:16:45.457Z,28.27
2022-08-18T14:19:31.731Z,28.51
2022-08-18T14:22:17.775Z,28.64
2022-08-18T14:25:04.418Z,28.68
2022-08-18T14:27:37.562Z,28.75
2022-08-18T14:30:09.780Z,28.83
2022-08-18T14:32:49.114Z,28.84
2022-08-18T14:35:33.017Z,28.79
2022-08-18T14:38:09.798Z,28.75
2022-08-18T14:40:43.189Z,28.66
2022-08-18T14:43:14.089Z,28.88
2022-08-18T14:45:48.860Z,29.17
2022-08-18T14:48:20.234Z,29.15
2022-08-18T14:50:52.293Z,29.01
2022-08-18T14:53:23.300Z,28.88
2022-08-18T14:55:52.434Z,28.67
2022-08-18T14:58:28.656Z,28.49
2022-08-18T15:00:59.162Z,28.57
2022-08-18T15:03:31.569Z,28.71
2022-08-18T15:06:04.875Z,28.69
2022-08-18T15:08:35.390Z,28.63
2022-08-18T15:11:06.085Z,28.58
2022-08-18T15:13:42.195Z,28.58
2022-08-18T15:16:13.469Z,28.67
2022-08-18T15:18:42.727Z,28.69
2022-08-18T15:21:43.532Z,28.71
2022-08-18T15:24:29.332Z,28.89
2022-08-18T15:27:05.819Z,28.98
2022-08-18T15:29:34.218Z,29.13
2022-08-18T15:32:26.056Z,29.35
2022-08-18T15:34:53.712Z,29.47
2022-08-18T15:37:22.190Z,29.50
2022-08-18T15:40:02.811Z,29.59
2022-08-18T15:42:30.214Z,29.66
2022-08-18T15:45:11.973Z,29.73
2022-08-18T15:47:41.405Z,29.60
2022-08-18T15:50:25.671Z,29.39
2022-08-18T15:53:00.936Z,29.10
2022-08-18T15:55:35.932Z,28.87
2022-08-18T15:58:04.764Z,28.65
2022-08-18T16:00:42.268Z,28.49
2022-08-18T16:03:14.581Z,28.41
2022-08-18T16:05:54.484Z,28.37
2022-08-18T16:08:24.193Z,28.27
2022-08-18T16:10:52.563Z,28.10
2022-08-18T16:13:20.159Z,28.03
2022-08-18T16:15:49.820Z,28.01
2022-08-18T16:18:19.862Z,27.97
2022-08-18T16:20:47.395Z,27.93
2022-08-18T16:23:14.621Z,27.93
2022-08-18T16:25:43.311Z,28.01
2022-08-18T16:28:13.191Z,28.16
2022-08-18T16:30:40.995Z,28.22
2022-08-18T16:33:08.057Z,28.24
2022-08-18T16:35:37.156Z,28.03
2022-08-18T16:38:09.363Z,27.95
2022-08-18T16:40:37.561Z,27.90
2022-08-18T16:43:05.804Z,27.91
2022-08-18T16:45:35.851Z,27.92
2022-08-18T16:48:03.314Z,28.00
2022-08-18T16:50:30.261Z,28.12
2022-08-18T16:52:57.729Z,28.25
2022-08-18T16:55:24.881Z,28.30
2022-08-18T16:58:15.271Z,28.30
2022-08-18T17:01:01.931Z,28.32
2022-08-18T17:03:48.075Z,28.26
2022-08-18T17:06:18.430Z,28.15
2022-08-18T17:08:46.193Z,28.04
2022-08-18T17:11:18.296Z,27.95
2022-08-18T17:13:48.406Z,27.81
2022-08-18T17:16:17.819Z,27.62
2022-08-18T17:18:45.155Z,27.38
2022-08-18T17:21:16.193Z,27.36
2022-08-18T17:23:43.296Z,27.30
2022-08-18T17:26:53.112Z,27.27
2022-08-18T17:29:35.595Z,27.23
2022-08-18T17:32:47.087Z,27.08
2022-08-18T17:35:34.268Z,26.98
2022-08-18T17:38:08.353Z,26.87
2022-08-18T17:40:49.752Z,26.80
2022-08-18T17:43:21.252Z,26.72
2022-08-18T17:46:14.736Z,26.63
2022-08-18T17:48:55.490Z,26.46
2022-08-18T17:51:43.382Z,26.35
2022-08-18T17:54:39.307Z,26.31
2022-08-18T17:57:32.497Z,26.29
2022-08-18T18:00:09.974Z,26.24
2022-08-18T18:02:42.636Z,26.18
2022-08-18T18:05:12.832Z,26.15
2022-08-18T18:07:51.363Z,26.14
2022-08-18T18:11:05.392Z,26.15
2022-08-18T18:13:34.240Z,26.12
2022-08-18T18:16:30.041Z,26.10
2022-08-18T18:19:02.950Z,26.10
2022-08-18T18:21:55.301Z,26.07
2022-08-18T18:24:30.661Z,26.01
2022-08-18T18:26:58.294Z,25.98
2022-08-18T18:29:32.412Z,25.94
2022-08-18T18:32:23.933Z,25.86
2022-08-18T18:35:17.262Z,25.79
2022-08-18T18:37:49.698Z,25.70
2022-08-18T18:40:36.612Z,25.53
2022-08-18T18:43:35.745Z,25.45
2022-08-18T18:46:23.052Z,25.34
2022-08-18T18:49:21.559Z,25.30
2022-08-18T18:52:00.890Z,25.23
2022-08-18T18:54:44.227Z,25.16
2022-08-18T18:58:06.906Z,25.00
2022-08-18T19:00:53.382Z,24.86
2022-08-18T19:03:35.257Z,24.79
2022-08-18T19:06:14.160Z,24.75
2022-08-18T19:09:01.557Z,24.64
2022-08-18T19:12:24.733Z,24.51
2022-08-18T19:14:59.586Z,24.44
2022-08-18T19:17:41.483Z,24.35
2022-08-18T19:20:16.228Z,24.25
2022-08-18T19:23:05.686Z,24.18
2022-08-18T19:25:44.231Z,24.13
2022-08-18T19:29:12.575Z,24.09
2022-08-18T19:31:50.516Z,23.99
2022-08-18T19:34:31.317Z,23.85
2022-08-18T19:37:18.322Z,23.73
2022-08-18T19:40:22.226Z,23.66
2022-08-18T19:43:01.267Z,23.60
2022-08-18T19:46:05.561Z,23.57
2022-08-18T19:48:54.007Z,23.57
2022-08-18T19:51:39.210Z,23.55
2022-08-18T19:54:36.601Z,23.56
2022-08-18T19:57:37.344Z,23.51
2022-08-18T20:00:16.431Z,23.45
2022-08-18T20:03:10.113Z,23.41
2022-08-18T20:06:34.259Z,23.34
2022-08-18T20:09:34.374Z,23.27
2022-08-18T20:12:22.111Z,23.18
2022-08-18T20:15:23.071Z,23.16
2022-08-18T20:17:58.941Z,23.15
2022-08-18T20:20:30.610Z,23.12
2022-08-18T20:22:59.555Z,23.09
2022-08-18T20:25:42.800Z,23.05
2022-08-18T20:28:09.646Z,22.98
2022-08-18T20:31:13.156Z,22.91
2022-08-18T20:33:46.752Z,22.81
2022-08-18T20:36:28.046Z,22.79
2022-08-18T20:38:58.592Z,22.74
2022-08-18T20:41:45.434Z,22.65
2022-08-18T20:44:29.404Z,22.61
2022-08-18T20:47:09.476Z,22.56
2022-08-18T20:50:21.552Z,22.51
2022-08-18T20:53:21.705Z,22.44
2022-08-18T20:55:57.444Z,22.41
2022-08-18T20:58:37.881Z,22.38
2022-08-18T21:01:05.091Z,22.30
2022-08-18T21:03:44.560Z,22.28
2022-08-18T21:06:15.328Z,22.22
2022-08-18T21:08:52.286Z,22.14
2022-08-18T21:11:38.580Z,22.09
2022-08-18T21:14:05.933Z,22.02
2022-08-18T21:16:45.089Z,22.00
2022-08-18T21:19:25.326Z,21.90
2022-08-18T21:22:02.523Z,21.85
2022-08-18T21:24:50.149Z,21.80
2022-08-18T21:27:38.991Z,21.75
2022-08-18T21:30:16.757Z,21.73
2022-08-18T21:32:46.799Z,21.67
2022-08-18T21:35:34.200Z,21.67
2022-08-18T21:38:12.180Z,21.58
2022-08-18T21:40:46.332Z,21.55
2022-08-18T21:43:33.947Z,21.49
2022-08-18T21:46:03.299Z,21.49
2022-08-18T21:48:32.110Z,21.47
2022-08-18T21:51:01.960Z,21.42
2022-08-18T21:53:35.129Z,21.41
2022-08-18T21:56:02.365Z,21.39
2022-08-18T21:58:45.140Z,21.36
2022-08-18T22:01:22.044Z,21.35
2022-08-18T22:03:50.128Z,21.32
2022-08-18T22:06:40.210Z,21.29
2022-08-18T22:09:28.670Z,21.27
2022-08-18T22:12:49.545Z,21.25
2022-08-18T22:15:28.800Z,21.24
2022-08-18T22:18:07.036Z,21.23
2022-08-18T22:20:55.929Z,21.24
2022-08-18T22:23:58.600Z,21.20
2022-08-18T22:26:37.690Z,21.14
2022-08-18T22:29:18.713Z,21.10
2022-08-18T22:31:50.573Z,21.02
2022-08-18T22:34:27.730Z,20.94
2022-08-18T22:37:19.298Z,20.88
2022-08-18T22:40:04.939Z,20.85
2022-08-18T22:42:34.193Z,20.81
2022-08-18T22:45:09.091Z,20.76
2022-08-18T22:47:42.704Z,20.74
2022-08-18T22:50:11.169Z,20.72
2022-08-18T22:52:43.928Z,20.66
2022-08-18T22:55:14.401Z,20.63
2022-08-18T22:57:42.903Z,20.58
2022-08-18T23:00:18.123Z,20.54
2022-08-18T23:02:47.681Z,20.49
2022-08-18T23:05:15.176Z,20.46
2022-08-18T23:07:42.653Z,20.42
2022-08-18T23:10:13.945Z,20.44
2022-08-18T23:12:46.450Z,20.42
2022-08-18T23:15:15.360Z,20.41
2022-08-18T23:17:43.367Z,20.38
2022-08-18T23:20:17.928Z,20.33
2022-08-18T23:22:45.918Z,20.28
2022-08-18T23:25:13.436Z,20.20
2022-08-18T23:27:41.213Z,20.12
2022-08-18T23:30:09.164Z,20.07
2022-08-18T23:32:36.329Z,20.10
2022-08-18T23:35:03.929Z,20.05
2022-08-18T23:37:31.520Z,20.03
2022-08-18T23:39:58.841Z,20.03
2022-08-18T23:42:25.935Z,19.98
2022-08-18T23:44:52.889Z,19.89
2022-08-18T23:47:20.971Z,19.82
2022-08-18T23:49:48.958Z,19.79
2022-08-18T23:52:17.469Z,19.76
2022-08-18T23:54:44.372Z,19.75
2022-08-18T23:57:11.344Z,19.73
2022-08-18T23:59:38.289Z,19.67
